createdAt,value
2023-01-29T00:00:53.372Z,84403.66
2023-01-29T00:03:56.732Z,84404.44
2023-01-29T00:06:59.348Z,84406.00
2023-01-29T00:10:02.093Z,84407.59
2023-01-29T00:13:05.583Z,84413.91
2023-01-29T00:16:08.673Z,84413.91
2023-01-29T00:19:11.156Z,84413.94
2023-01-29T00:22:13.794Z,84429.69
2023-01-29T00:25:16.329Z,84439.13
2023-01-29T00:28:19.394Z,84442.31
2023-01-29T00:31:24.353Z,84442.31
2023-01-29T00:34:27.185Z,84461.22
2023-01-29T00:37:29.911Z,84457.28
2023-01-29T00:40:52.463Z,84459.66
2023-01-29T00:44:13.601Z,84469.88
2023-01-29T00:47:33.329Z,84469.09
2023-01-29T00:50:35.756Z,84464.41
2023-01-29T00:53:38.473Z,84477.00
2023-01-29T00:56:40.773Z,84487.25
2023-01-29T00:59:43.473Z,84483.28
2023-01-29T01:03:04.885Z,84487.22
2023-01-29T01:06:10.546Z,84491.16
2023-01-29T01:09:31.873Z,84497.47
2023-01-29T01:12:36.792Z,84499.00
2023-01-29T01:15:40.208Z,84499.81
2023-01-29T01:18:43.243Z,84503.75
2023-01-29T01:21:48.193Z,84506.91
2023-01-29T01:24:50.875Z,84524.28
2023-01-29T01:31:09.530Z,84524.25
2023-01-29T01:34:12.022Z,84532.09
2023-01-29T01:37:15.093Z,84540.78
2023-01-29T01:40:21.357Z,84536.84
2023-01-29T01:43:24.112Z,84543.94
2023-01-29T01:46:37.867Z,84551.06
2023-01-29T01:49:41.061Z,84552.59
2023-01-29T01:52:47.424Z,84562.12
2023-01-29T01:56:01.404Z,84553.41
2023-01-29T01:59:07.044Z,84554.94
2023-01-29T02:02:28.328Z,84570.00
2023-01-29T02:05:52.735Z,84563.62
2023-01-29T02:09:20.615Z,84566.78
2023-01-29T02:12:23.392Z,84559.69
2023-01-29T02:15:25.674Z,84571.53
2023-01-29T02:18:28.345Z,84573.84
2023-01-29T02:21:55.430Z,84573.91
2023-01-29T02:25:23.376Z,84565.22
2023-01-29T02:28:50.142Z,84572.31
2023-01-29T02:32:01.957Z,84585.72
2023-01-29T02:35:32.229Z,84583.34
2023-01-29T02:38:52.018Z,84590.41
2023-01-29T02:42:14.891Z,84591.22
2023-01-29T02:45:30.312Z,84587.25
2023-01-29T02:48:47.722Z,84604.63
2023-01-29T02:52:14.267Z,84603.06
2023-01-29T02:55:24.174Z,84607.78
2023-01-29T02:58:36.163Z,84606.16
2023-01-29T03:01:48.744Z,84615.66
2023-01-29T03:04:58.447Z,84614.06
2023-01-29T03:08:10.306Z,84621.97
2023-01-29T03:11:15.018Z,84625.16
2023-01-29T03:14:55.258Z,84620.37
2023-01-29T03:18:05.368Z,84620.37
2023-01-29T03:21:31.779Z,84620.44
2023-01-29T03:24:59.232Z,84617.25
2023-01-29T03:28:22.702Z,84606.19
2023-01-29T03:31:47.116Z,84596.78
2023-01-29T03:34:54.638Z,84587.28
2023-01-29T03:37:57.466Z,84591.22
2023-01-29T03:41:19.531Z,84581.03
2023-01-29T03:44:34.849Z,84577.88
2023-01-29T03:48:03.212Z,84584.19
2023-01-29T03:51:35.338Z,84585.81
2023-01-29T03:55:06.889Z,84577.84
2023-01-29T03:58:37.098Z,84579.44
2023-01-29T04:02:09.189Z,84574.75
2023-01-29T04:05:20.228Z,84576.31
2023-01-29T04:08:29.121Z,84563.72
2023-01-29T04:11:36.348Z,84541.63
2023-01-29T04:14:39.485Z,84554.25
2023-01-29T04:17:48.829Z,84535.37
2023-01-29T04:20:52.523Z,84538.50
2023-01-29T04:23:55.639Z,84547.19
2023-01-29T04:27:08.092Z,84548.75
2023-01-29T04:30:35.889Z,84547.97
2023-01-29T04:33:57.511Z,84544.81
2023-01-29T04:37:27.485Z,84540.03
2023-01-29T04:40:42.414Z,84549.56
2023-01-29T04:43:59.478Z,84546.44
2023-01-29T04:47:12.666Z,84549.50
2023-01-29T04:50:28.333Z,84539.25
2023-01-29T04:53:42.630Z,84538.50
2023-01-29T04:57:04.847Z,84551.09
2023-01-29T05:00:13.646Z,84552.69
2023-01-29T05:03:17.016Z,84554.25
2023-01-29T05:06:21.240Z,84547.16
2023-01-29T05:09:25.928Z,84551.13
2023-01-29T05:12:30.406Z,84540.09
2023-01-29T05:15:44.385Z,84552.69
2023-01-29T05:18:47.504Z,84551.13
2023-01-29T05:21:50.603Z,84547.94
2023-01-29T05:24:52.969Z,84536.91
2023-01-29T05:28:11.994Z,84530.59
2023-01-29T05:31:14.450Z,84532.19
2023-01-29T05:34:17.318Z,84525.88
2023-01-29T05:37:19.785Z,84536.94
2023-01-29T05:40:23.063Z,84544.75
2023-01-29T05:43:25.522Z,84549.50
2023-01-29T05:46:28.179Z,84552.69
2023-01-29T05:49:30.515Z,84556.59
2023-01-29T05:52:33.219Z,84560.56
2023-01-29T05:55:35.710Z,84563.69
2023-01-29T05:58:38.835Z,84566.91
2023-01-29T06:01:41.226Z,84559.00
2023-01-29T06:04:43.947Z,84571.59
2023-01-29T06:07:47.075Z,84574.75
2023-01-29T06:10:49.665Z,84579.44
2023-01-29T06:13:52.063Z,84563.72
2023-01-29T06:16:54.775Z,84581.06
2023-01-29T06:19:57.131Z,84588.19
2023-01-29T06:23:00.096Z,84587.31
2023-01-29T06:26:05.340Z,84607.84
2023-01-29T06:29:07.957Z,84603.88
2023-01-29T06:32:10.358Z,84614.16
2023-01-29T06:35:12.998Z,84615.72
2023-01-29T06:38:15.373Z,84620.47
2023-01-29T06:41:19.547Z,84631.50
2023-01-29T06:44:21.995Z,84625.16
2023-01-29T06:47:25.135Z,84632.31
2023-01-29T06:50:27.482Z,84640.97
2023-01-29T06:53:30.645Z,84633.88
2023-01-29T06:56:33.016Z,84628.37
2023-01-29T06:59:35.607Z,84629.97
2023-01-29T07:02:38.047Z,84628.41
2023-01-29T07:05:40.619Z,84618.13
2023-01-29T07:08:43.060Z,84618.88
2023-01-29T07:11:45.744Z,84631.50
2023-01-29T07:14:48.160Z,84638.62
2023-01-29T07:18:01.725Z,84628.34
2023-01-29T07:21:06.758Z,84622.03
2023-01-29T07:24:09.550Z,84615.75
2023-01-29T07:27:11.987Z,84617.34
2023-01-29T07:30:15.074Z,84611.00
2023-01-29T07:33:17.591Z,84615.75
2023-01-29T07:36:20.253Z,84611.00
2023-01-29T07:39:23.363Z,84596.84
2023-01-29T07:42:26.096Z,84587.41
2023-01-29T07:45:29.707Z,84585.81
2023-01-29T07:48:32.351Z,84585.00
2023-01-29T07:51:34.658Z,84583.41
2023-01-29T07:54:37.299Z,84584.25
2023-01-29T07:57:39.735Z,84573.19
2023-01-29T08:00:42.553Z,84568.50
2023-01-29T08:03:45.154Z,84562.16
2023-01-29T08:06:47.505Z,84557.44
2023-01-29T08:09:50.173Z,84559.00
2023-01-29T08:13:00.153Z,84563.75
2023-01-29T08:16:04.134Z,84570.09
2023-01-29T08:19:06.604Z,84565.34
2023-01-29T08:22:09.326Z,84555.06
2023-01-29T08:25:12.036Z,84562.94
2023-01-29T08:28:14.842Z,84560.59
2023-01-29T08:31:20.755Z,84559.03
2023-01-29T08:34:23.635Z,84565.34
2023-01-29T08:37:26.051Z,84551.13
2023-01-29T08:40:33.710Z,84566.91
2023-01-29T08:43:37.085Z,84586.62
2023-01-29T08:46:41.437Z,84585.84
2023-01-29T08:49:44.086Z,84596.87
2023-01-29T08:52:47.150Z,84596.87
2023-01-29T08:55:49.479Z,84600.03
2023-01-29T08:58:53.353Z,84592.19
2023-01-29T09:01:55.714Z,84589.78
2023-01-29T09:04:58.324Z,84600.00
2023-01-29T09:08:01.013Z,84602.41
2023-01-29T09:11:03.797Z,84619.75
2023-01-29T09:14:06.431Z,84628.41
2023-01-29T09:17:09.062Z,84616.59
2023-01-29T09:20:11.770Z,84604.75
2023-01-29T09:23:14.397Z,84587.44
2023-01-29T09:26:16.744Z,84591.34
2023-01-29T09:29:19.612Z,84596.13
2023-01-29T09:32:49.725Z,84612.63
2023-01-29T09:35:48.522Z,84618.97
2023-01-29T09:38:50.874Z,84619.72
2023-01-29T09:42:16.708Z,84611.09
2023-01-29T09:45:25.330Z,84614.22
2023-01-29T09:48:32.851Z,84632.38
2023-01-29T09:51:44.716Z,84634.75
2023-01-29T09:54:56.470Z,84625.28
2023-01-29T09:58:00.819Z,84619.00
2023-01-29T10:01:40.208Z,84626.81
2023-01-29T10:04:56.800Z,84614.22
2023-01-29T10:08:34.036Z,84592.19
2023-01-29T10:11:42.768Z,84600.06
2023-01-29T10:15:03.710Z,84596.87
2023-01-29T10:18:24.650Z,84597.66
2023-01-29T10:21:38.893Z,84584.31
2023-01-29T10:24:55.554Z,84573.28
2023-01-29T10:28:00.393Z,84560.66
2023-01-29T10:31:14.703Z,84557.50
2023-01-29T10:34:28.688Z,84559.87
2023-01-29T10:37:39.517Z,84588.25
2023-01-29T10:40:50.719Z,84597.66
2023-01-29T10:43:53.272Z,84584.28
2023-01-29T10:47:03.691Z,84593.78
2023-01-29T10:50:44.916Z,84603.22
2023-01-29T10:54:05.257Z,84595.31
2023-01-29T10:57:28.170Z,84592.97
2023-01-29T11:00:37.461Z,84593.72
2023-01-29T11:03:40.202Z,84585.88
2023-01-29T11:06:43.779Z,84581.91
2023-01-29T11:09:57.346Z,84560.66
2023-01-29T11:12:59.974Z,84571.66
2023-01-29T11:16:05.240Z,84570.06
2023-01-29T11:19:07.591Z,84585.81
2023-01-29T11:22:14.967Z,84594.50
2023-01-29T11:25:20.143Z,84599.22
2023-01-29T11:28:40.461Z,84609.47
2023-01-29T11:31:43.291Z,84592.13
2023-01-29T11:35:22.333Z,84572.41
2023-01-29T11:38:29.037Z,84551.94
2023-01-29T11:41:43.866Z,84551.91
2023-01-29T11:44:46.244Z,84584.22
2023-01-29T11:47:56.988Z,84570.00
2023-01-29T11:51:01.003Z,84559.75
2023-01-29T11:54:06.551Z,84557.41
2023-01-29T11:57:23.790Z,84547.97
2023-01-29T12:00:28.851Z,84525.91
2023-01-29T12:03:37.268Z,84519.56
2023-01-29T12:06:44.087Z,84524.38
2023-01-29T12:10:00.092Z,84514.84
2023-01-29T12:13:15.830Z,84508.56
2023-01-29T12:16:27.788Z,84511.69
2023-01-29T12:19:43.798Z,84544.81
2023-01-29T12:22:56.377Z,84544.78
2023-01-29T12:26:05.359Z,84527.47
2023-01-29T12:29:24.615Z,84525.88
2023-01-29T12:32:49.768Z,84527.47
2023-01-29T12:36:09.293Z,84518.00
2023-01-29T12:39:17.702Z,84521.16
2023-01-29T12:42:22.741Z,84536.91
2023-01-29T12:45:29.332Z,84518.78
2023-01-29T12:48:34.887Z,84500.69
2023-01-29T12:51:46.688Z,84508.53
2023-01-29T12:54:55.422Z,84489.63
2023-01-29T12:58:04.301Z,84472.31
2023-01-29T13:01:33.478Z,84458.94
2023-01-29T13:04:41.231Z,84494.41
2023-01-29T13:07:50.181Z,84499.13
2023-01-29T13:10:54.856Z,84489.63
2023-01-29T13:14:22.782Z,84493.53
2023-01-29T13:17:36.468Z,84492.78
2023-01-29T13:20:39.546Z,84476.22
2023-01-29T13:23:57.790Z,84489.66
2023-01-29T13:27:01.160Z,84462.03
2023-01-29T13:30:04.561Z,84476.97
2023-01-29T13:33:10.702Z,84469.88
2023-01-29T13:36:19.211Z,84481.72
2023-01-29T13:39:45.206Z,84503.75
2023-01-29T13:42:49.963Z,84497.47
2023-01-29T13:45:54.763Z,84516.41
2023-01-29T13:49:01.325Z,84501.41
2023-01-29T13:52:43.373Z,84483.28
2023-01-29T13:55:45.689Z,84516.44
2023-01-29T13:58:48.435Z,84527.44
2023-01-29T14:01:50.997Z,84511.66
2023-01-29T14:05:30.904Z,84475.37
2023-01-29T14:08:37.899Z,84497.47
2023-01-29T14:11:48.274Z,84513.25
2023-01-29T14:14:59.219Z,84528.22
2023-01-29T14:21:36.372Z,84533.72
2023-01-29T14:24:43.069Z,84574.69
2023-01-29T14:27:50.034Z,84585.72
2023-01-29T14:30:53.432Z,84573.13
2023-01-29T14:34:02.193Z,84579.41
2023-01-29T14:37:25.343Z,84593.56
2023-01-29T14:40:30.389Z,84608.56
2023-01-29T14:43:33.172Z,84595.13
2023-01-29T14:46:35.544Z,84595.94
2023-01-29T14:50:26.335Z,84618.78
2023-01-29T14:53:43.265Z,84607.75
2023-01-29T14:56:58.980Z,84610.91
2023-01-29T15:00:05.545Z,84612.50
2023-01-29T15:03:18.386Z,84626.63
2023-01-29T15:06:33.584Z,84633.75
2023-01-29T15:09:41.797Z,84640.81
2023-01-29T15:13:01.114Z,84642.41
2023-01-29T15:16:19.128Z,84642.37
2023-01-29T15:19:25.420Z,84648.69
2023-01-29T15:22:30.464Z,84646.31
2023-01-29T15:25:50.497Z,84644.72
2023-01-29T15:29:04.121Z,84651.81
2023-01-29T15:32:08.370Z,84647.09
2023-01-29T15:36:06.401Z,84656.59
2023-01-29T15:39:09.847Z,84651.81
2023-01-29T15:42:23.475Z,84667.53
2023-01-29T15:45:31.071Z,84667.56
2023-01-29T15:48:40.805Z,84685.69
2023-01-29T15:51:45.319Z,84704.53
2023-01-29T15:54:48.546Z,84702.19
2023-01-29T15:57:54.362Z,84697.50
2023-01-29T16:00:59.138Z,84704.53
2023-01-29T16:04:04.083Z,84706.13
2023-01-29T16:07:07.385Z,84713.22
2023-01-29T16:10:18.759Z,84716.38
2023-01-29T16:13:24.325Z,84708.50
2023-01-29T16:16:30.617Z,84715.56
2023-01-29T16:19:33.348Z,84717.91
2023-01-29T16:22:37.923Z,84728.94
2023-01-29T16:25:40.724Z,84721.09
2023-01-29T16:28:45.576Z,84728.16
2023-01-29T16:31:52.099Z,84744.69
2023-01-29T16:34:59.320Z,84762.00
2023-01-29T16:38:06.810Z,84767.50
2023-01-29T16:41:21.927Z,84773.00
2023-01-29T16:44:36.539Z,84779.34
2023-01-29T16:47:43.704Z,84780.94
2023-01-29T16:50:54.723Z,84777.72
2023-01-29T16:54:06.711Z,84769.88
2023-01-29T16:57:19.711Z,84757.31
2023-01-29T17:00:29.203Z,84755.72
2023-01-29T17:03:34.416Z,84746.28
2023-01-29T17:06:39.074Z,84765.19
2023-01-29T17:09:42.609Z,84762.06
2023-01-29T17:12:55.025Z,84756.53
2023-01-29T17:16:04.710Z,84755.72
2023-01-29T17:19:30.124Z,84765.16
2023-01-29T17:22:34.304Z,84774.59
2023-01-29T17:25:37.675Z,84779.31
2023-01-29T17:28:41.656Z,84780.87
2023-01-29T17:31:44.569Z,84802.91
2023-01-29T17:34:47.165Z,84802.87
2023-01-29T17:37:50.182Z,84788.69
2023-01-29T17:40:58.284Z,84794.97
2023-01-29T17:44:01.569Z,84802.78
2023-01-29T17:47:05.526Z,84798.13
2023-01-29T17:50:30.726Z,84796.53
2023-01-29T17:53:45.662Z,84806.75
2023-01-29T17:56:50.102Z,84804.41
2023-01-29T17:59:52.682Z,84805.94
2023-01-29T18:02:55.922Z,84791.81
2023-01-29T18:05:59.230Z,84794.94
2023-01-29T18:09:02.295Z,84796.50
2023-01-29T18:12:10.000Z,84790.16
2023-01-29T18:15:13.010Z,84795.69
2023-01-29T18:18:19.584Z,84795.75
2023-01-29T18:21:22.842Z,84799.62
2023-01-29T18:24:26.672Z,84809.06
2023-01-29T18:27:29.251Z,84798.03
2023-01-29T18:30:32.592Z,84816.91
2023-01-29T18:33:35.546Z,84809.00
2023-01-29T18:36:38.450Z,84821.62
2023-01-29T18:39:41.189Z,84820.03
2023-01-29T18:42:45.453Z,84816.16
2023-01-29T18:45:48.855Z,84809.78
2023-01-29T18:48:51.839Z,84822.34
2023-01-29T18:51:54.625Z,84832.63
2023-01-29T18:54:57.596Z,84827.91
2023-01-29T18:58:29.180Z,84818.47
2023-01-29T19:01:23.710Z,84829.53
2023-01-29T19:04:33.332Z,84813.78
2023-01-29T19:07:43.170Z,84821.62
2023-01-29T19:11:11.040Z,84825.56
2023-01-29T19:14:33.357Z,84842.09
2023-01-29T19:17:36.555Z,84835.75
2023-01-29T19:20:42.717Z,84827.88
2023-01-29T19:23:45.601Z,84829.41
2023-01-29T19:26:49.350Z,84822.38
2023-01-29T19:29:52.747Z,84815.31
2023-01-29T19:32:55.567Z,84838.91
2023-01-29T19:36:00.001Z,84834.22
2023-01-29T19:39:03.597Z,84828.66
2023-01-29T19:42:06.213Z,84818.41
2023-01-29T19:45:10.008Z,84818.47
2023-01-29T19:48:13.722Z,84808.97
2023-01-29T19:51:16.796Z,84821.53
2023-01-29T19:54:22.145Z,84823.91
2023-01-29T19:57:25.574Z,84831.00
2023-01-29T20:00:28.260Z,84833.34
2023-01-29T20:03:31.174Z,84838.84
2023-01-29T20:06:33.737Z,84841.16
2023-01-29T20:09:38.885Z,84837.31
2023-01-29T20:12:41.828Z,84832.56
2023-01-29T20:15:49.746Z,84833.34
2023-01-29T20:18:52.549Z,84846.69
2023-01-29T20:21:55.462Z,84842.00
2023-01-29T20:24:58.282Z,84838.75
2023-01-29T20:28:01.571Z,84834.81
2023-01-29T20:31:05.418Z,84832.50
2023-01-29T20:34:08.320Z,84830.91
2023-01-29T20:37:11.247Z,84828.53
2023-01-29T20:40:15.591Z,84823.84
2023-01-29T20:43:18.557Z,84829.38
2023-01-29T20:46:21.734Z,84827.72
2023-01-29T20:49:24.384Z,84824.63
2023-01-29T20:52:27.370Z,84827.03
2023-01-29T20:55:30.276Z,84823.88
2023-01-29T20:58:33.780Z,84827.78
2023-01-29T21:01:36.800Z,84831.75
2023-01-29T21:04:39.557Z,84839.63
2023-01-29T21:07:42.155Z,84842.75
2023-01-29T21:10:48.096Z,84837.22
2023-01-29T21:13:53.247Z,84847.47
2023-01-29T21:16:56.116Z,84845.16
2023-01-29T21:19:59.467Z,84850.66
2023-01-29T21:23:05.273Z,84851.44
2023-01-29T21:26:09.176Z,84852.97
2023-01-29T21:29:12.934Z,84856.16
2023-01-29T21:32:15.533Z,84845.19
2023-01-29T21:35:18.369Z,84849.84
2023-01-29T21:38:20.783Z,84857.66
2023-01-29T21:41:46.735Z,84859.22
2023-01-29T21:44:50.003Z,84860.84
2023-01-29T21:47:53.410Z,84862.44
2023-01-29T21:50:56.167Z,84864.03
2023-01-29T21:53:59.055Z,84853.00
2023-01-29T21:57:06.019Z,84845.91
2023-01-29T22:00:12.659Z,84843.53
2023-01-29T22:03:15.956Z,84854.56
2023-01-29T22:06:18.830Z,84857.69
2023-01-29T22:09:22.628Z,84854.53
2023-01-29T22:12:26.150Z,84848.19
2023-01-29T22:15:28.961Z,84849.84
2023-01-29T22:18:31.557Z,84845.06
2023-01-29T22:21:35.982Z,84834.03
2023-01-29T22:24:38.461Z,84838.78
2023-01-29T22:27:41.493Z,84840.37
2023-01-29T22:30:45.280Z,84840.28
2023-01-29T22:33:48.627Z,84830.84
2023-01-29T22:36:51.901Z,84823.78
2023-01-29T22:39:54.839Z,84818.25
2023-01-29T22:42:57.988Z,84820.66
2023-01-29T22:46:00.774Z,84819.81
2023-01-29T22:49:03.361Z,84810.41
2023-01-29T22:52:11.994Z,84808.81
2023-01-29T22:55:14.509Z,84804.09
2023-01-29T22:58:17.300Z,84808.81
2023-01-29T23:01:21.967Z,84810.37
2023-01-29T23:04:24.922Z,84801.72
2023-01-29T23:07:27.419Z,84797.78
2023-01-29T23:10:30.331Z,84789.94
2023-01-29T23:13:33.736Z,84796.25
2023-01-29T23:16:37.852Z,84793.06
2023-01-29T23:19:40.217Z,84788.41
2023-01-29T23:22:43.059Z,84778.84
2023-01-29T23:26:03.961Z,84779.66
2023-01-29T23:29:06.709Z,84778.88
2023-01-29T23:32:09.851Z,84779.69
2023-01-29T23:35:12.583Z,84774.13
2023-01-29T23:38:15.020Z,84780.50
2023-01-29T23:41:17.793Z,84778.81
2023-01-29T23:44:20.813Z,84777.31
2023-01-29T23:47:23.771Z,84775.72
2023-01-29T23:50:27.191Z,84763.13
2023-01-29T23:53:30.079Z,84762.34
2023-01-29T23:56:32.660Z,84745.78
2023-01-29T23:59:35.381Z,84760.00
